createdAt,value
2018-09-11T00:02:50.849Z,3.75
2018-09-11T00:07:54.296Z,4.00
2018-09-11T00:12:57.775Z,4.00
2018-09-11T00:18:01.248Z,3.75
2018-09-11T00:23:04.697Z,3.00
2018-09-11T00:28:08.164Z,4.00
2018-09-11T00:33:11.610Z,4.50
2018-09-11T00:38:15.052Z,4.00
2018-09-11T00:43:18.488Z,4.00
2018-09-11T00:48:21.904Z,3.75
2018-09-11T00:53:25.372Z,4.00
2018-09-11T00:58:28.814Z,4.60
2018-09-11T01:03:32.264Z,4.00
2018-09-11T01:08:35.715Z,4.00
2018-09-11T01:13:39.330Z,3.50
2018-09-11T01:18:42.793Z,4.00
2018-09-11T01:23:46.278Z,4.20
2018-09-11T01:28:49.735Z,4.00
2018-09-11T01:33:53.180Z,5.00
2018-09-11T01:38:56.636Z,4.00
2018-09-11T01:44:00.097Z,5.00
2018-09-11T01:49:04.008Z,3.00
2018-09-11T01:54:07.472Z,4.00
2018-09-11T01:59:10.927Z,4.00
2018-09-11T02:04:14.384Z,4.60
2018-09-11T02:09:17.878Z,4.60
2018-09-11T02:14:21.335Z,4.00
2018-09-11T02:19:24.781Z,4.80
2018-09-11T02:24:28.245Z,4.00
2018-09-11T02:29:31.693Z,4.00
2018-09-11T02:34:35.167Z,4.75
2018-09-11T02:39:38.634Z,6.00
2018-09-11T02:44:42.111Z,5.00
2018-09-11T02:49:45.603Z,3.50
2018-09-11T02:54:49.068Z,5.25
2018-09-11T02:59:52.506Z,4.50
2018-09-11T03:04:55.971Z,3.25
2018-09-11T03:09:59.415Z,4.00
2018-09-11T03:15:03.042Z,5.50
2018-09-11T03:20:06.644Z,4.00
2018-09-11T03:25:10.116Z,4.20
2018-09-11T03:30:13.551Z,4.00
2018-09-11T03:35:17.004Z,4.00
2018-09-11T03:40:20.463Z,4.00
2018-09-11T03:45:23.920Z,4.50
2018-09-11T03:50:27.648Z,4.00
2018-09-11T03:55:31.072Z,4.75
2018-09-11T04:00:34.542Z,3.00
2018-09-11T04:05:38.091Z,4.00
2018-09-11T04:10:41.497Z,4.00
2018-09-11T04:15:44.936Z,3.20
2018-09-11T04:20:48.404Z,4.00
2018-09-11T04:25:51.859Z,4.00
2018-09-11T04:30:55.341Z,3.80
2018-09-11T04:35:58.795Z,4.00
2018-09-11T04:41:02.273Z,3.00
2018-09-11T04:46:05.770Z,4.00
2018-09-11T04:51:09.217Z,3.25
2018-09-11T04:56:12.755Z,4.00
2018-09-11T05:01:16.167Z,3.75
2018-09-11T05:06:19.656Z,5.00
2018-09-11T05:11:23.116Z,6.00
2018-09-11T05:16:26.559Z,3.75
2018-09-11T05:21:30.033Z,4.00
2018-09-11T05:26:33.492Z,4.00
2018-09-11T05:31:36.944Z,5.75
2018-09-11T05:36:40.401Z,4.00
2018-09-11T05:41:43.861Z,4.75
2018-09-11T05:46:47.313Z,4.00
2018-09-11T05:51:50.975Z,4.50
2018-09-11T05:56:54.474Z,5.00
2018-09-11T06:01:57.955Z,5.00
2018-09-11T06:07:01.402Z,4.60
2018-09-11T06:12:04.883Z,5.75
2018-09-11T06:17:08.357Z,6.80
2018-09-11T06:22:11.861Z,4.25
2018-09-11T06:27:15.305Z,6.00
2018-09-11T06:32:18.746Z,5.00
2018-09-11T06:37:22.238Z,6.80
2018-09-11T06:42:25.736Z,7.00
2018-09-11T06:47:29.227Z,7.25
2018-09-11T06:52:32.690Z,7.75
2018-09-11T06:57:36.147Z,7.75
2018-09-11T07:02:39.612Z,9.00
2018-09-11T07:07:43.103Z,7.75
2018-09-11T07:12:46.583Z,7.00
2018-09-11T07:17:50.029Z,9.00
2018-09-11T07:22:53.514Z,7.00
2018-09-11T07:27:57.009Z,7.75
2018-09-11T07:33:00.488Z,7.00
2018-09-11T07:38:03.940Z,7.00
2018-09-11T07:43:07.388Z,6.80
2018-09-11T07:48:10.835Z,7.25
2018-09-11T07:53:14.292Z,7.00
2018-09-11T07:58:17.741Z,3.40
2018-09-11T08:03:21.273Z,4.00
2018-09-11T08:08:24.727Z,4.75
2018-09-11T08:13:28.173Z,4.00
2018-09-11T08:18:31.616Z,3.20
2018-09-11T08:23:35.127Z,4.50
2018-09-11T08:28:38.620Z,3.00
2018-09-11T08:33:42.080Z,4.00
2018-09-11T08:38:45.548Z,4.80
2018-09-11T08:43:48.960Z,4.00
2018-09-11T08:48:52.406Z,5.00
2018-09-11T08:53:55.850Z,5.00
2018-09-11T08:58:59.550Z,4.00
2018-09-11T09:04:03.052Z,3.00
2018-09-11T09:09:08.992Z,4.20
2018-09-11T09:14:12.444Z,3.40
2018-09-11T09:19:15.903Z,4.00
2018-09-11T09:24:19.392Z,4.00
2018-09-11T09:29:22.859Z,4.00
2018-09-11T09:34:26.312Z,3.00
2018-09-11T09:39:29.759Z,4.00
2018-09-11T09:44:33.206Z,4.00
2018-09-11T09:49:36.647Z,3.80
2018-09-11T09:54:40.220Z,3.75
2018-09-11T09:59:43.691Z,4.00
2018-09-11T10:04:47.185Z,4.00
2018-09-11T10:09:51.019Z,3.60
2018-09-11T10:14:54.459Z,4.00
2018-09-11T10:19:57.916Z,3.60
2018-09-11T10:25:01.572Z,4.00
2018-09-11T10:30:05.408Z,3.50
2018-09-11T10:35:09.054Z,3.00
2018-09-11T10:40:12.671Z,4.00
2018-09-11T10:45:16.156Z,4.00
2018-09-11T10:50:19.734Z,3.00
2018-09-11T10:55:23.283Z,4.00
2018-09-11T11:00:26.810Z,3.75
2018-09-11T11:05:30.235Z,3.75
2018-09-11T11:10:33.707Z,4.00
2018-09-11T11:15:37.313Z,2.75
2018-09-11T11:20:41.096Z,3.00
2018-09-11T11:25:44.519Z,3.20
2018-09-11T11:35:57.675Z,3.00
2018-09-11T11:41:01.133Z,3.25
2018-09-11T11:46:04.574Z,3.60
2018-09-11T11:51:08.009Z,3.25
2018-09-11T11:56:11.468Z,2.50
2018-09-11T12:01:14.960Z,3.00
2018-09-11T12:06:18.399Z,3.20
2018-09-11T12:11:21.838Z,3.00
2018-09-11T12:16:25.277Z,2.40
2018-09-11T12:21:28.742Z,2.25
2018-09-11T12:26:32.163Z,3.00
2018-09-11T12:31:35.595Z,3.00
2018-09-11T12:36:39.052Z,3.00
2018-09-11T12:41:42.513Z,2.00
2018-09-11T12:46:46.097Z,2.50
2018-09-11T12:51:49.413Z,2.00
2018-09-11T12:56:52.922Z,2.00
2018-09-11T13:01:56.361Z,2.00
2018-09-11T13:06:59.802Z,2.00
2018-09-11T13:12:03.250Z,2.75
2018-09-11T13:17:06.755Z,2.75
2018-09-11T13:22:10.216Z,2.00
2018-09-11T13:27:13.662Z,2.00
2018-09-11T13:32:17.146Z,1.80
2018-09-11T13:37:20.604Z,1.50
2018-09-11T13:42:24.058Z,1.50
2018-09-11T13:47:27.762Z,2.00
2018-09-11T13:52:45.882Z,2.50
2018-09-11T13:57:49.346Z,2.00
2018-09-11T14:02:52.826Z,2.00
2018-09-11T14:07:56.300Z,2.00
2018-09-11T14:12:59.747Z,2.00
2018-09-11T14:18:03.221Z,1.25
2018-09-11T14:23:06.848Z,1.75
2018-09-11T14:28:11.897Z,2.00
2018-09-11T14:33:15.624Z,2.00
2018-09-11T14:38:19.148Z,2.00
2018-09-11T14:43:22.645Z,1.60
2018-09-11T14:48:26.182Z,1.00
2018-09-11T14:53:29.716Z,1.60
2018-09-11T14:58:33.429Z,2.00
2018-09-11T15:03:37.144Z,1.00
2018-09-11T15:08:40.683Z,1.00
2018-09-11T15:13:44.152Z,1.00
2018-09-11T15:18:47.622Z,1.00
2018-09-11T15:23:51.163Z,2.00
2018-09-11T15:28:54.599Z,2.00
2018-09-11T15:33:58.378Z,1.00
2018-09-11T15:39:01.893Z,1.00
2018-09-11T15:44:05.384Z,1.20
2018-09-11T15:49:08.840Z,1.75
2018-09-11T15:54:12.332Z,1.00
2018-09-11T15:59:16.223Z,1.00
2018-09-11T16:04:19.770Z,1.80
2018-09-11T16:09:23.187Z,1.25
2018-09-11T16:14:26.657Z,1.80
2018-09-11T16:19:30.177Z,1.00
2018-09-11T16:24:33.620Z,2.00
2018-09-11T16:29:37.208Z,1.00
2018-09-11T16:34:40.697Z,1.20
2018-09-11T16:39:44.282Z,1.75
2018-09-11T16:44:47.864Z,1.00
2018-09-11T16:49:51.308Z,1.00
2018-09-11T16:54:54.755Z,1.00
2018-09-11T16:59:58.247Z,1.00
2018-09-11T17:05:01.862Z,1.00
2018-09-11T17:10:05.424Z,0.25
2018-09-11T17:15:08.938Z,0.80
2018-09-11T17:20:12.424Z,1.00
2018-09-11T17:25:16.046Z,1.00
2018-09-11T17:30:19.898Z,1.00
2018-09-11T17:35:23.486Z,1.00
2018-09-11T17:40:26.978Z,1.00
2018-09-11T17:45:30.423Z,1.00
2018-09-11T17:50:33.879Z,1.00
2018-09-11T17:55:37.294Z,1.00
2018-09-11T18:00:41.654Z,1.00
2018-09-11T18:05:45.125Z,0.80
2018-09-11T18:10:48.678Z,1.00
2018-09-11T18:15:52.225Z,1.00
2018-09-11T18:20:55.691Z,1.00
2018-09-11T18:25:59.254Z,1.00
2018-09-11T18:31:02.793Z,0.00
2018-09-11T18:36:06.276Z,1.00
2018-09-11T18:41:09.813Z,2.00
2018-09-11T18:46:13.255Z,0.00
2018-09-11T18:51:16.768Z,1.75
2018-09-11T18:56:20.243Z,1.00
2018-09-11T19:01:23.796Z,1.00
2018-09-11T19:06:27.336Z,1.00
2018-09-11T19:11:30.820Z,2.00
2018-09-11T19:16:34.329Z,0.75
2018-09-11T19:21:37.949Z,1.00
2018-09-11T19:26:41.463Z,1.50
2018-09-11T19:31:44.916Z,1.00
2018-09-11T19:36:48.345Z,1.60
2018-09-11T19:41:51.896Z,1.00
2018-09-11T19:46:55.870Z,1.40
2018-09-11T19:51:59.615Z,2.00
2018-09-11T19:57:03.110Z,3.00
2018-09-11T20:02:06.681Z,1.60
2018-09-11T20:07:10.200Z,2.00
2018-09-11T20:12:13.901Z,2.00
2018-09-11T20:17:17.463Z,2.00
2018-09-11T20:22:21.073Z,2.25
2018-09-11T20:27:24.518Z,1.00
2018-09-11T20:32:28.107Z,2.50
2018-09-11T20:37:31.710Z,2.00
2018-09-11T20:42:35.466Z,2.00
2018-09-11T20:47:38.955Z,1.00
2018-09-11T20:52:42.504Z,2.00
2018-09-11T20:57:45.942Z,1.75
2018-09-11T21:02:50.065Z,2.00
2018-09-11T21:07:53.639Z,2.00
2018-09-11T21:12:57.080Z,2.00
2018-09-11T21:18:02.933Z,2.00
2018-09-11T21:23:08.519Z,2.25
2018-09-11T21:28:12.056Z,1.40
2018-09-11T21:33:18.707Z,3.00
2018-09-11T21:38:22.568Z,1.00
2018-09-11T21:43:26.842Z,1.00
2018-09-11T21:48:36.828Z,2.00
2018-09-11T21:53:40.596Z,2.00
2018-09-11T21:58:45.035Z,1.75
2018-09-11T22:03:48.928Z,2.00
2018-09-11T22:08:52.601Z,1.75
2018-09-11T22:13:56.491Z,2.00
2018-09-11T22:19:02.790Z,2.00
2018-09-11T22:29:59.784Z,1.00
2018-09-11T22:35:04.034Z,1.25
2018-09-11T22:40:08.619Z,1.00
2018-09-11T22:45:14.635Z,2.00
2018-09-11T22:50:18.502Z,1.00
2018-09-11T22:55:22.478Z,1.00
2018-09-11T23:00:26.352Z,1.00
2018-09-11T23:05:41.016Z,1.25
2018-09-11T23:10:44.694Z,1.00
2018-09-11T23:15:48.425Z,1.75
2018-09-11T23:20:52.258Z,1.20
2018-09-11T23:25:56.795Z,2.00
2018-09-11T23:31:00.656Z,1.00
2018-09-11T23:36:04.559Z,1.00
2018-09-11T23:41:08.659Z,1.25
2018-09-11T23:46:12.235Z,1.00
2018-09-11T23:51:15.880Z,1.60
2018-09-11T23:56:22.761Z,1.00
